Time;durP1;ratioP1;P1;durP2;ratioP2;P2;SDS_P1;SDS_P2;PMS_P1;PMS_P2;Temp;Humidity;BMP_temperature;BMP_pressure;BME280_temperature;BME280_humidity;BME280_pressure;Samples;Min_cycle;Max_cycle;Signal;HPM_P1;HPM_P2
2023/09/06 00:00:44;;;;;;;24.63;17.50;;;;;;;;;;5015038;28;20479;-71
2023/09/06 00:03:11;;;;;;;22.70;17.00;;;;;;;;;;5020410;28;20522;-71
2023/09/06 00:05:42;;;;;;;21.20;16.02;;;;;;;;;;5028635;28;20425;-71
2023/09/06 00:08:12;;;;;;;21.63;16.67;;;;;;;;;;5023121;28;20449;-71
2023/09/06 00:10:40;;;;;;;22.33;17.25;;;;;;;;;;5025820;28;20837;-71
2023/09/06 00:13:08;;;;;;;22.45;17.20;;;;;;;;;;5026477;28;20457;-71
2023/09/06 00:15:35;;;;;;;20.73;16.65;;;;;;;;;;5025569;28;20431;-71
2023/09/06 00:18:05;;;;;;;18.83;16.10;;;;;;;;;;5024773;28;20443;-71
2023/09/06 00:20:36;;;;;;;17.48;15.68;;;;;;;;;;5033468;28;20435;-72
2023/09/06 00:23:12;;;;;;;17.20;15.50;;;;;;;;;;5026767;28;20438;-71
2023/09/06 00:25:43;;;;;;;17.67;15.77;;;;;;;;;;5026498;28;20486;-71
2023/09/06 00:28:10;;;;;;;5.05;4.57;;;;;;;;;;5024440;28;20432;-70
2023/09/06 00:30:37;;;;;;;38.25;22.33;;;;;;;;;;5027654;28;20439;-71
2023/09/06 00:33:06;;;;;;;39.80;22.92;;;;;;;;;;5022740;28;20435;-72
2023/09/06 00:35:33;;;;;;;22.58;17.73;;;;;;;;;;5029351;28;21020;-71
2023/09/06 00:38:01;;;;;;;20.80;17.13;;;;;;;;;;5027280;28;20430;-71
2023/09/06 00:40:30;;;;;;;35.47;21.63;;;;;;;;;;5024879;28;20557;-71
2023/09/06 00:43:01;;;;;;;18.45;16.10;;;;;;;;;;5029823;28;20477;-71
2023/09/06 00:45:34;;;;;;;0.00;0.00;;;;;;;;;;5027631;28;20479;-71
2023/09/06 00:48:04;;;;;;;13.70;12.40;;;;;;;;;;5045717;28;20523;-71
2023/09/06 00:50:32;;;;;;;16.53;15.03;;;;;;;;;;5034491;28;20472;-70
2023/09/06 00:52:59;;;;;;;16.60;14.90;;;;;;;;;;5020960;28;20930;-71
2023/09/06 00:55:26;;;;;;;17.05;15.45;;;;;;;;;;5030474;28;20459;-71
2023/09/06 00:57:54;;;;;;;16.80;15.10;;;;;;;;;;5043204;28;20507;-71
2023/09/06 01:00:24;;;;;;;16.40;14.90;;;;;;;;;;5026694;28;20541;-71
2023/09/06 01:02:52;;;;;;;16.85;15.15;;;;;;;;;;5030499;28;20924;-71
2023/09/06 01:05:19;;;;;;;17.60;15.80;;;;;;;;;;5028041;28;20431;-71
2023/09/06 01:07:48;;;;;;;16.75;15.15;;;;;;;;;;5027673;28;20527;-71
2023/09/06 01:10:15;;;;;;;16.73;15.13;;;;;;;;;;5032091;28;20435;-70
2023/09/06 01:12:42;;;;;;;15.82;14.43;;;;;;;;;;5046301;28;20512;-70
2023/09/06 01:15:11;;;;;;;0.00;0.00;;;;;;;;;;5031416;28;20429;-70
2023/09/06 01:17:41;;;;;;;0.00;0.00;;;;;;;;;;5034714;28;20425;-70
2023/09/06 01:20:15;;;;;;;0.00;0.00;;;;;;;;;;5029204;28;20445;-71
2023/09/06 01:22:58;;;;;;;12.98;12.15;;;;;;;;;;5023975;28;20534;-72
2023/09/06 01:25:32;;;;;;;14.40;13.30;;;;;;;;;;5028442;28;20433;-70
2023/09/06 01:28:02;;;;;;;15.10;13.90;;;;;;;;;;5032076;28;20459;-71
2023/09/06 01:30:30;;;;;;;16.90;15.38;;;;;;;;;;5030922;28;20443;-71
2023/09/06 01:32:57;;;;;;;28.47;21.47;;;;;;;;;;5031805;28;20438;-71
2023/09/06 01:35:25;;;;;;;29.23;21.70;;;;;;;;;;5032447;28;20468;-71
2023/09/06 01:37:52;;;;;;;28.70;21.48;;;;;;;;;;5027674;28;20516;-72
2023/09/06 01:40:26;;;;;;;32.10;22.73;;;;;;;;;;5034182;28;20526;-71
2023/09/06 01:42:54;;;;;;;30.65;22.10;;;;;;;;;;5023567;28;20525;-71
2023/09/06 01:45:21;;;;;;;34.38;23.63;;;;;;;;;;5025344;28;20551;-72
2023/09/06 01:47:48;;;;;;;33.75;23.33;;;;;;;;;;5027630;28;20474;-71
2023/09/06 01:50:19;;;;;;;33.90;23.42;;;;;;;;;;5043264;28;20431;-71
2023/09/06 01:52:49;;;;;;;33.58;23.45;;;;;;;;;;5027207;28;20529;-72
2023/09/06 01:55:16;;;;;;;30.70;22.73;;;;;;;;;;5034683;28;20939;-71
2023/09/06 01:57:44;;;;;;;29.80;22.50;;;;;;;;;;5025240;28;20446;-71
2023/09/06 02:00:19;;;;;;;29.23;22.35;;;;;;;;;;5025105;28;20443;-71
2023/09/06 02:02:46;;;;;;;27.73;21.98;;;;;;;;;;5028899;28;20464;-71
2023/09/06 02:05:13;;;;;;;25.75;21.27;;;;;;;;;;5025406;28;20439;-71
2023/09/06 02:07:41;;;;;;;24.63;21.02;;;;;;;;;;5046501;28;20425;-71
2023/09/06 02:10:08;;;;;;;23.85;20.77;;;;;;;;;;5029606;28;20534;-71
2023/09/06 02:12:36;;;;;;;25.15;21.15;;;;;;;;;;5032289;28;20444;-72
2023/09/06 02:15:05;;;;;;;25.20;21.23;;;;;;;;;;5027056;28;20459;-71
2023/09/06 02:17:33;;;;;;;24.58;21.05;;;;;;;;;;5027505;28;20492;-72
2023/09/06 02:20:21;;;;;;;23.77;20.88;;;;;;;;;;5034724;28;20426;-72
2023/09/06 02:22:52;;;;;;;23.00;20.50;;;;;;;;;;5027921;28;20449;-71
2023/09/06 02:25:21;;;;;;;14.10;13.20;;;;;;;;;;5025741;28;20518;-71
2023/09/06 02:27:52;;;;;;;17.98;16.38;;;;;;;;;;5029933;28;20431;-72
2023/09/06 02:30:23;;;;;;;23.25;20.75;;;;;;;;;;5027981;28;20514;-71
2023/09/06 02:32:51;;;;;;;21.48;19.38;;;;;;;;;;5029557;28;20925;-72
2023/09/06 02:35:22;;;;;;;21.00;19.00;;;;;;;;;;5027658;28;20465;-72
2023/09/06 02:37:49;;;;;;;20.95;18.95;;;;;;;;;;5030528;28;20526;-72
2023/09/06 02:40:18;;;;;;;11.60;11.00;;;;;;;;;;5035128;28;20433;-71
2023/09/06 02:42:48;;;;;;;11.90;11.30;;;;;;;;;;5031424;28;20437;-72
2023/09/06 02:45:16;;;;;;;10.65;10.15;;;;;;;;;;5026748;28;20444;-70
2023/09/06 02:47:48;;;;;;;10.30;9.90;;;;;;;;;;5030349;28;21004;-71
2023/09/06 02:50:17;;;;;;;10.75;10.25;;;;;;;;;;5035205;28;20545;-71
2023/09/06 02:52:45;;;;;;;10.80;10.30;;;;;;;;;;5044500;28;20854;-71
2023/09/06 02:55:13;;;;;;;11.20;10.70;;;;;;;;;;5025365;28;20434;-71
2023/09/06 02:57:41;;;;;;;11.20;10.70;;;;;;;;;;5025698;28;20521;-71
2023/09/06 03:00:19;;;;;;;10.93;10.43;;;;;;;;;;5030483;28;20975;-71
2023/09/06 03:02:46;;;;;;;10.15;9.75;;;;;;;;;;5027650;28;20477;-71
2023/09/06 03:05:17;;;;;;;0.22;0.22;;;;;;;;;;5026256;28;20486;-71
2023/09/06 03:07:48;;;;;;;0.80;0.80;;;;;;;;;;5022197;28;20488;-72
2023/09/06 03:10:16;;;;;;;2.40;2.40;;;;;;;;;;5030662;28;20484;-71
2023/09/06 03:12:43;;;;;;;1.80;1.80;;;;;;;;;;5030000;28;20439;-71
2023/09/06 03:15:11;;;;;;;2.53;2.53;;;;;;;;;;5026915;28;20802;-71
2023/09/06 03:17:40;;;;;;;1.58;1.58;;;;;;;;;;5031191;28;20429;-71
2023/09/06 03:20:31;;;;;;;4.90;4.80;;;;;;;;;;5030779;28;20427;-71
2023/09/06 03:23:02;;;;;;;3.30;3.30;;;;;;;;;;5023361;28;20489;-70
2023/09/06 03:25:32;;;;;;;0.43;0.43;;;;;;;;;;5025415;28;20439;-71
2023/09/06 03:28:04;;;;;;;2.10;2.10;;;;;;;;;;5027018;28;20435;-71
2023/09/06 03:30:31;;;;;;;2.42;2.42;;;;;;;;;;5021508;28;20459;-71
2023/09/06 03:32:58;;;;;;;5.32;5.22;;;;;;;;;;5021195;28;20489;-71
2023/09/06 03:35:26;;;;;;;3.17;3.17;;;;;;;;;;5034838;28;20484;-70
2023/09/06 03:37:54;;;;;;;7.80;7.60;;;;;;;;;;5025719;28;20447;-71
2023/09/06 03:40:36;;;;;;;7.75;7.55;;;;;;;;;;5026063;28;20536;-71
2023/09/06 03:43:16;;;;;;;8.75;8.45;;;;;;;;;;5031197;28;20435;-71
2023/09/06 03:45:44;;;;;;;8.80;8.50;;;;;;;;;;5027878;28;20433;-70
2023/09/06 03:48:17;;;;;;;7.80;7.60;;;;;;;;;;5026495;28;20538;-71
2023/09/06 03:50:51;;;;;;;8.25;8.05;;;;;;;;;;5022430;28;20496;-72
2023/09/06 03:53:25;;;;;;;8.18;7.97;;;;;;;;;;5025298;28;21952;-71
2023/09/06 03:55:57;;;;;;;1.25;1.25;;;;;;;;;;5031660;28;20524;-71
2023/09/06 03:58:25;;;;;;;6.37;6.27;;;;;;;;;;5033104;28;20939;-71
2023/09/06 04:00:53;;;;;;;6.10;6.00;;;;;;;;;;5023171;28;20441;-72
2023/09/06 04:03:22;;;;;;;7.18;6.97;;;;;;;;;;5026185;28;20558;-71
2023/09/06 04:05:53;;;;;;;3.55;3.55;;;;;;;;;;5032915;28;20434;-71
2023/09/06 04:08:28;;;;;;;7.20;7.00;;;;;;;;;;5027310;28;20542;-71
2023/09/06 04:10:56;;;;;;;6.43;6.32;;;;;;;;;;5021515;28;20913;-71
2023/09/06 04:13:23;;;;;;;4.00;4.00;;;;;;;;;;5037051;28;20441;-71
2023/09/06 04:15:50;;;;;;;5.45;5.35;;;;;;;;;;5034471;28;20439;-72
2023/09/06 04:18:20;;;;;;;7.00;6.80;;;;;;;;;;5040466;28;20462;-71
2023/09/06 04:20:49;;;;;;;5.30;5.20;;;;;;;;;;5035432;28;20430;-71
2023/09/06 04:23:16;;;;;;;5.82;5.72;;;;;;;;;;5040134;28;20447;-72
2023/09/06 04:25:47;;;;;;;2.08;2.08;;;;;;;;;;5028851;28;20979;-71
2023/09/06 04:28:15;;;;;;;2.38;2.38;;;;;;;;;;5032288;28;20437;-72
2023/09/06 04:30:43;;;;;;;4.32;4.32;;;;;;;;;;5034349;28;20434;-71
2023/09/06 04:33:12;;;;;;;4.90;4.90;;;;;;;;;;5025337;28;20452;-71
2023/09/06 04:35:44;;;;;;;5.10;5.00;;;;;;;;;;5027967;28;20439;-70
2023/09/06 04:38:11;;;;;;;5.30;5.20;;;;;;;;;;5027041;28;21596;-72
2023/09/06 04:40:39;;;;;;;5.57;5.47;;;;;;;;;;5024276;28;20499;-71
2023/09/06 04:43:07;;;;;;;5.75;5.65;;;;;;;;;;5021379;28;20940;-70
2023/09/06 04:45:38;;;;;;;5.90;5.80;;;;;;;;;;5031827;28;20694;-70
2023/09/06 04:48:09;;;;;;;6.22;6.13;;;;;;;;;;5041340;28;20439;-71
2023/09/06 04:50:40;;;;;;;6.50;6.40;;;;;;;;;;5033982;28;20431;-70
2023/09/06 04:53:08;;;;;;;7.07;6.87;;;;;;;;;;5035758;28;20441;-70
2023/09/06 04:55:36;;;;;;;6.75;6.63;;;;;;;;;;5039801;28;20426;-71
2023/09/06 04:58:04;;;;;;;7.20;7.00;;;;;;;;;;5034465;28;20494;-71
2023/09/06 05:00:39;;;;;;;7.45;7.25;;;;;;;;;;5028347;28;20427;-71
2023/09/06 05:03:12;;;;;;;7.20;7.00;;;;;;;;;;5029778;28;20947;-70
2023/09/06 05:05:41;;;;;;;7.20;7.00;;;;;;;;;;5025379;28;20434;-70
2023/09/06 05:08:09;;;;;;;7.22;7.03;;;;;;;;;;5038535;28;20485;-72
2023/09/06 05:10:40;;;;;;;7.53;7.33;;;;;;;;;;5031633;28;20843;-70
2023/09/06 05:13:11;;;;;;;7.32;7.13;;;;;;;;;;5033486;28;21035;-70
2023/09/06 05:15:39;;;;;;;8.25;8.02;;;;;;;;;;5029178;28;20513;-70
2023/09/06 05:18:10;;;;;;;9.57;9.27;;;;;;;;;;5030400;28;20601;-70
2023/09/06 05:20:38;;;;;;;13.73;12.93;;;;;;;;;;5027564;28;20434;-69
2023/09/06 05:23:05;;;;;;;12.80;12.10;;;;;;;;;;5027406;28;20520;-69
2023/09/06 05:25:33;;;;;;;12.73;12.05;;;;;;;;;;5019177;28;20895;-69
2023/09/06 05:28:01;;;;;;;10.77;10.38;;;;;;;;;;5031265;28;20469;-70
2023/09/06 05:30:29;;;;;;;10.95;10.45;;;;;;;;;;5045311;28;20432;-70
2023/09/06 05:32:56;;;;;;;12.13;11.53;;;;;;;;;;5025641;28;20493;-70
2023/09/06 05:35:31;;;;;;;13.65;12.85;;;;;;;;;;5023677;28;20445;-70
2023/09/06 05:37:58;;;;;;;19.23;17.58;;;;;;;;;;5029161;28;20426;-70
2023/09/06 05:40:26;;;;;;;13.20;12.50;;;;;;;;;;5027084;28;20517;-70
2023/09/06 05:42:57;;;;;;;13.13;12.43;;;;;;;;;;5030835;28;20512;-70
2023/09/06 05:45:26;;;;;;;14.68;13.77;;;;;;;;;;5024513;28;22466;-70
2023/09/06 05:47:53;;;;;;;14.23;13.32;;;;;;;;;;5034742;28;20429;-69
2023/09/06 05:50:24;;;;;;;14.73;13.73;;;;;;;;;;5033107;28;20438;-69
2023/09/06 05:52:51;;;;;;;14.77;13.77;;;;;;;;;;5037206;28;20438;-69
2023/09/06 05:55:18;;;;;;;15.15;14.05;;;;;;;;;;5026818;28;20435;-69
2023/09/06 05:57:45;;;;;;;15.65;14.45;;;;;;;;;;5025687;28;20435;-70
2023/09/06 06:00:15;;;;;;;16.40;15.00;;;;;;;;;;5029144;28;20522;-70
2023/09/06 06:02:46;;;;;;;14.15;13.18;;;;;;;;;;5025352;28;20483;-69
2023/09/06 06:05:14;;;;;;;15.80;14.50;;;;;;;;;;5024172;28;20465;-70
2023/09/06 06:07:42;;;;;;;22.42;17.92;;;;;;;;;;5023308;28;20462;-70
2023/09/06 06:10:09;;;;;;;15.83;14.37;;;;;;;;;;5032046;28;21139;-70
2023/09/06 06:12:38;;;;;;;21.02;16.95;;;;;;;;;;5036011;28;20468;-69
2023/09/06 06:15:12;;;;;;;17.23;15.43;;;;;;;;;;5031049;28;20454;-70
2023/09/06 06:17:39;;;;;;;22.92;18.17;;;;;;;;;;5016766;28;20439;-69
2023/09/06 06:20:07;;;;;;;36.95;22.38;;;;;;;;;;5026791;28;20909;-69
2023/09/06 06:22:38;;;;;;;49.55;25.33;;;;;;;;;;5027234;28;20438;-70
2023/09/06 06:25:07;;;;;;;71.75;29.20;;;;;;;;;;5024899;28;20454;-70
2023/09/06 06:27:35;;;;;;;86.63;31.85;;;;;;;;;;5024073;28;20438;-70
2023/09/06 06:30:05;;;;;;;121.40;38.78;;;;;;;;;;5019489;28;20444;-69
2023/09/06 06:32:33;;;;;;;40.55;23.10;;;;;;;;;;5011609;28;20454;-70
2023/09/06 06:35:06;;;;;;;130.38;40.50;;;;;;;;;;5018747;28;20541;-70
2023/09/06 06:37:34;;;;;;;52.60;26.27;;;;;;;;;;5015469;28;20438;-70
2023/09/06 06:40:02;;;;;;;26.10;19.50;;;;;;;;;;5017333;28;20547;-70
2023/09/06 06:42:29;;;;;;;40.28;23.58;;;;;;;;;;5019072;28;20481;-69
2023/09/06 06:44:56;;;;;;;54.97;26.67;;;;;;;;;;5018514;28;20435;-70
2023/09/06 06:47:24;;;;;;;50.63;25.90;;;;;;;;;;5027484;28;21173;-70
2023/09/06 06:49:51;;;;;;;40.90;23.75;;;;;;;;;;5026121;28;21554;-70
2023/09/06 06:52:21;;;;;;;39.42;23.50;;;;;;;;;;5028740;28;20467;-70
2023/09/06 06:54:52;;;;;;;41.80;23.90;;;;;;;;;;5019997;28;20908;-69
2023/09/06 06:57:19;;;;;;;34.33;22.20;;;;;;;;;;5012490;28;20432;-70
2023/09/06 06:59:46;;;;;;;58.80;27.30;;;;;;;;;;5023280;28;20886;-69
2023/09/06 07:02:19;;;;;;;57.78;27.20;;;;;;;;;;5021734;28;20463;-69
2023/09/06 07:04:46;;;;;;;56.42;26.98;;;;;;;;;;5024382;28;20562;-69
2023/09/06 07:07:13;;;;;;;58.72;27.08;;;;;;;;;;5021607;28;21062;-69
2023/09/06 07:09:41;;;;;;;65.35;28.50;;;;;;;;;;5025231;28;20810;-69
2023/09/06 07:12:08;;;;;;;61.70;27.70;;;;;;;;;;5026199;28;20442;-68
2023/09/06 07:14:35;;;;;;;58.47;27.30;;;;;;;;;;5029559;28;20453;-69
2023/09/06 07:17:02;;;;;;;57.40;27.03;;;;;;;;;;5027512;28;20431;-69
2023/09/06 07:19:30;;;;;;;62.45;27.95;;;;;;;;;;5024247;28;20431;-69
2023/09/06 07:21:59;;;;;;;64.38;28.20;;;;;;;;;;5026506;28;20481;-68
2023/09/06 07:24:29;;;;;;;64.00;28.20;;;;;;;;;;5024096;28;20435;-68
2023/09/06 07:26:56;;;;;;;71.53;29.90;;;;;;;;;;5023486;28;20435;-68
2023/09/06 07:29:23;;;;;;;66.35;28.80;;;;;;;;;;5022415;28;20437;-68
2023/09/06 07:31:51;;;;;;;68.97;29.30;;;;;;;;;;5025381;28;20454;-69
2023/09/06 07:34:21;;;;;;;57.60;26.77;;;;;;;;;;5027438;28;20476;-69
2023/09/06 07:36:51;;;;;;;43.50;24.42;;;;;;;;;;5025661;28;20439;-68
2023/09/06 07:39:19;;;;;;;59.40;27.38;;;;;;;;;;5023855;28;20509;-69
2023/09/06 07:41:48;;;;;;;59.63;27.35;;;;;;;;;;5025167;28;20905;-69
2023/09/06 07:44:16;;;;;;;73.50;29.80;;;;;;;;;;5020970;28;20433;-69
2023/09/06 07:46:48;;;;;;;74.15;29.92;;;;;;;;;;5019488;28;20427;-70
2023/09/06 07:49:16;;;;;;;54.30;26.60;;;;;;;;;;5021900;28;20460;-69
2023/09/06 07:51:43;;;;;;;58.30;27.20;;;;;;;;;;5023598;28;20443;-70
2023/09/06 07:54:11;;;;;;;48.72;23.25;;;;;;;;;;5024245;28;21305;-69
2023/09/06 07:56:39;;;;;;;80.50;30.93;;;;;;;;;;5025144;28;20936;-68
2023/09/06 07:59:09;;;;;;;82.90;31.10;;;;;;;;;;5028514;28;20431;-68
2023/09/06 08:01:37;;;;;;;86.60;32.20;;;;;;;;;;5026194;28;20986;-68
2023/09/06 08:04:04;;;;;;;82.45;31.27;;;;;;;;;;5024997;28;20448;-68
2023/09/06 08:06:34;;;;;;;76.13;30.13;;;;;;;;;;5024697;28;20550;-68
2023/09/06 08:09:02;;;;;;;73.15;29.77;;;;;;;;;;5023890;28;20438;-68
2023/09/06 08:11:29;;;;;;;78.00;30.60;;;;;;;;;;5019692;28;20908;-70
2023/09/06 08:13:57;;;;;;;73.30;29.83;;;;;;;;;;5029295;28;20434;-69
2023/09/06 08:16:24;;;;;;;89.70;32.77;;;;;;;;;;5038040;28;20984;-69
2023/09/06 08:18:51;;;;;;;81.77;31.83;;;;;;;;;;5023525;28;20521;-68
2023/09/06 08:21:19;;;;;;;71.57;29.80;;;;;;;;;;5017775;28;20986;-70
2023/09/06 08:23:46;;;;;;;62.75;28.10;;;;;;;;;;5026945;28;20909;-69
2023/09/06 08:26:13;;;;;;;66.07;28.85;;;;;;;;;;5026383;28;20431;-69
2023/09/06 08:28:44;;;;;;;68.03;29.40;;;;;;;;;;5017382;28;20997;-69
2023/09/06 08:31:12;;;;;;;66.38;28.90;;;;;;;;;;5021983;28;20439;-68
2023/09/06 08:33:39;;;;;;;43.83;24.70;;;;;;;;;;5024557;28;20435;-68
2023/09/06 08:36:07;;;;;;;51.90;26.00;;;;;;;;;;5024592;28;20813;-68
2023/09/06 08:38:34;;;;;;;37.40;23.10;;;;;;;;;;5037666;28;20435;-68
2023/09/06 08:41:02;;;;;;;58.38;27.30;;;;;;;;;;5026620;28;20456;-70
2023/09/06 08:43:33;;;;;;;59.30;27.58;;;;;;;;;;5024030;28;20438;-72
2023/09/06 08:46:02;;;;;;;60.30;27.40;;;;;;;;;;5012260;28;20936;-73
2023/09/06 08:48:29;;;;;;;67.65;29.20;;;;;;;;;;5022281;28;20451;-73
2023/09/06 08:50:58;;;;;;;65.28;28.33;;;;;;;;;;5030030;28;20431;-71
2023/09/06 08:53:26;;;;;;;67.68;28.92;;;;;;;;;;5023160;28;20425;-73
2023/09/06 08:55:54;;;;;;;78.97;31.00;;;;;;;;;;5030123;28;20442;-73
2023/09/06 08:58:22;;;;;;;62.83;28.00;;;;;;;;;;5026856;28;20462;-71
2023/09/06 09:00:49;;;;;;;65.45;28.60;;;;;;;;;;5027097;28;20457;-74
2023/09/06 09:03:16;;;;;;;69.55;29.08;;;;;;;;;;5027159;28;20504;-71
2023/09/06 09:05:46;;;;;;;62.85;28.10;;;;;;;;;;5029013;28;20427;-71
2023/09/06 09:08:13;;;;;;;64.40;28.20;;;;;;;;;;5027946;28;20426;-72
2023/09/06 09:10:48;;;;;;;68.03;29.02;;;;;;;;;;5031142;28;20576;-72
2023/09/06 09:13:15;;;;;;;46.25;24.90;;;;;;;;;;5025712;28;22168;-73
2023/09/06 09:15:42;;;;;;;65.03;28.60;;;;;;;;;;5026581;28;20930;-72
2023/09/06 09:18:13;;;;;;;39.05;23.35;;;;;;;;;;5019099;28;20786;-71
2023/09/06 09:20:41;;;;;;;47.87;25.40;;;;;;;;;;5022300;28;20521;-72
2023/09/06 09:23:14;;;;;;;59.37;27.50;;;;;;;;;;5029519;28;20433;-74
2023/09/06 09:25:48;;;;;;;62.10;28.33;;;;;;;;;;5022590;28;20528;-72
2023/09/06 09:28:16;;;;;;;71.00;29.30;;;;;;;;;;5022620;28;20516;-74
2023/09/06 09:30:43;;;;;;;67.53;29.27;;;;;;;;;;5023056;28;21052;-73
2023/09/06 09:33:13;;;;;;;63.25;28.60;;;;;;;;;;5030155;28;20435;-74
2023/09/06 09:35:41;;;;;;;55.58;27.17;;;;;;;;;;5032675;28;20556;-74
2023/09/06 09:38:13;;;;;;;40.67;23.80;;;;;;;;;;5022985;28;20434;-74
2023/09/06 09:40:40;;;;;;;66.38;29.00;;;;;;;;;;5026032;28;20437;-74
2023/09/06 09:43:20;;;;;;;20.20;18.05;;;;;;;;;;5026025;28;20438;-73
2023/09/06 09:45:47;;;;;;;42.33;23.35;;;;;;;;;;5025849;28;20874;-72
2023/09/06 09:48:16;;;;;;;19.30;17.33;;;;;;;;;;5024234;28;20512;-72
2023/09/06 09:50:44;;;;;;;;;;;;;;;;;;4980038;28;75351;-72
2023/09/06 09:53:11;;;;;;;;;;;;;;;;;;4991149;28;41445;-74
2023/09/06 09:55:47;;;;;;;;;;;;;;;;;;5027990;28;19925;-73
2023/09/06 09:58:14;;;;;;;;;;;;;;;;;;5053432;28;19971;-74
2023/09/06 10:00:43;;;;;;;;;;;;;;;;;;5038988;28;25063;-72
2023/09/06 10:03:10;;;;;;;;;;;;;;;;;;5030616;28;25061;-74
2023/09/06 10:05:40;;;;;;;;;;;;;;;;;;5029143;28;20409;-71
2023/09/06 10:08:08;;;;;;;;;;;;;;;;;;5042770;28;19928;-72
2023/09/06 10:10:35;;;;;;;;;;;;;;;;;;5033007;28;19928;-72
2023/09/06 10:13:04;;;;;;;;;;;;;;;;;;5038615;28;24084;-74
2023/09/06 10:15:32;;;;;;;;;;;;;;;;;;5033982;28;20287;-71
2023/09/06 10:17:59;;;;;;;;;;;;;;;;;;5039282;28;19960;-73
2023/09/06 10:20:27;;;;;;;;;;;;;;;;;;5033004;28;20335;-72
2023/09/06 10:22:54;;;;;;;;;;;;;;;;;;5026893;28;20427;-74
2023/09/06 10:25:21;;;;;;;;;;;;;;;;;;5030686;28;19947;-76
2023/09/06 10:27:48;;;;;;;;;;;;;;;;;;5046774;28;20314;-74
2023/09/06 10:30:18;;;;;;;;;;;;;;;;;;5031778;28;19925;-72
2023/09/06 10:32:48;;;;;;;;;;;;;;;;;;5031440;28;20433;-73
2023/09/06 10:35:16;;;;;;;;;;;;;;;;;;5026230;28;20016;-73
2023/09/06 10:37:44;;;;;;;;;;;;;;;;;;5036660;28;19937;-74
2023/09/06 10:40:12;;;;;;;;;;;;;;;;;;5025497;28;25146;-72
2023/09/06 10:42:39;;;;;;;;;;;;;;;;;;5037422;28;20395;-75
2023/09/06 10:45:06;;;;;;;;;;;;;;;;;;5033359;28;19924;-73
2023/09/06 10:47:33;;;;;;;;;;;;;;;;;;5030167;28;19928;-73
2023/09/06 10:50:01;;;;;;;;;;;;;;;;;;5036853;28;19943;-72
2023/09/06 10:52:28;;;;;;;;;;;;;;;;;;5034188;28;19974;-73
2023/09/06 10:54:55;;;;;;;;;;;;;;;;;;5029187;28;19925;-74
2023/09/06 10:57:22;;;;;;;;;;;;;;;;;;5032327;28;19924;-73
2023/09/06 10:59:49;;;;;;;;;;;;;;;;;;5022823;28;19961;-75
2023/09/06 11:02:16;;;;;;;;;;;;;;;;;;5023443;28;20378;-73
2023/09/06 11:04:45;;;;;;;;;;;;;;;;;;5026964;28;19921;-75
2023/09/06 11:07:15;;;;;;;;;;;;;;;;;;5019023;28;19932;-74
2023/09/06 11:09:50;;;;;;;5.13;5.03;;;;;;;;;;5024462;28;20788;-73
2023/09/06 11:12:17;;;;;;;36.47;23.27;;;;;;;;;;5031432;28;21036;-73
2023/09/06 11:14:49;;;;;;;64.28;29.35;;;;;;;;;;5037169;28;20434;-73
2023/09/06 11:17:23;;;;;;;76.97;31.50;;;;;;;;;;5019208;28;20433;-73
2023/09/06 11:19:50;;;;;;;20.42;18.30;;;;;;;;;;5021528;28;20435;-75
2023/09/06 11:22:18;;;;;;;109.47;37.30;;;;;;;;;;5027773;28;20463;-73
2023/09/06 11:24:45;;;;;;;121.15;37.97;;;;;;;;;;5026655;28;20438;-74
2023/09/06 11:27:12;;;;;;;;;;;;;;;;;;5026022;28;20432;-73
2023/09/06 11:29:39;;;;;;;26.13;20.17;;;;;;;;;;5031641;28;20521;-75
2023/09/06 11:32:11;;;;;;;69.78;30.77;;;;;;;;;;5028287;28;20485;-74
2023/09/06 11:34:45;;;;;;;75.35;30.75;;;;;;;;;;5027672;28;20799;-72
2023/09/06 11:37:15;;;;;;;74.07;30.60;;;;;;;;;;5025374;28;20426;-74
2023/09/06 11:39:46;;;;;;;86.85;32.72;;;;;;;;;;5028006;28;20431;-74
2023/09/06 11:42:15;;;;;;;93.93;33.50;;;;;;;;;;5023863;28;20430;-75
2023/09/06 11:44:49;;;;;;;72.97;30.98;;;;;;;;;;5027480;28;20467;-76
2023/09/06 11:47:19;;;;;;;123.88;38.35;;;;;;;;;;5024524;28;20440;-73
2023/09/06 11:49:49;;;;;;;113.20;36.92;;;;;;;;;;5022795;28;20449;-76
2023/09/06 11:52:16;;;;;;;85.93;32.55;;;;;;;;;;5040959;28;20442;-75
2023/09/06 11:54:49;;;;;;;84.85;32.17;;;;;;;;;;5060271;28;20431;-74
2023/09/06 11:57:32;;;;;;;98.10;33.75;;;;;;;;;;5033971;28;20433;-73
2023/09/06 12:00:03;;;;;;;91.45;33.13;;;;;;;;;;5030125;28;20435;-73
2023/09/06 12:02:34;;;;;;;91.93;33.15;;;;;;;;;;5027359;28;20470;-72
2023/09/06 12:05:09;;;;;;;67.38;29.98;;;;;;;;;;5036759;28;20431;-75
2023/09/06 12:07:36;;;;;;;29.50;21.33;;;;;;;;;;5031003;28;20504;-74
2023/09/06 12:10:05;;;;;;;19.05;17.23;;;;;;;;;;5024389;28;20435;-75
2023/09/06 12:12:41;;;;;;;40.38;23.88;;;;;;;;;;5029778;28;20456;-73
2023/09/06 12:15:17;;;;;;;60.35;28.10;;;;;;;;;;5034168;28;20470;-75
2023/09/06 12:17:50;;;;;;;36.60;23.25;;;;;;;;;;5026812;28;20806;-75
2023/09/06 12:20:23;;;;;;;60.23;28.50;;;;;;;;;;5021896;28;20434;-74
2023/09/06 12:22:51;;;;;;;53.17;26.97;;;;;;;;;;5026826;28;20565;-74
2023/09/06 12:25:19;;;;;;;25.08;20.10;;;;;;;;;;5030534;28;20431;-74
2023/09/06 12:27:47;;;;;;;71.20;29.85;;;;;;;;;;5029027;28;20522;-74
2023/09/06 12:30:16;;;;;;;66.90;29.02;;;;;;;;;;5054625;28;20456;-74
2023/09/06 12:32:43;;;;;;;60.45;28.55;;;;;;;;;;5033512;28;20426;-75
2023/09/06 12:35:10;;;;;;;;;;;;;;;;;;5032261;28;20433;-75
2023/09/06 12:37:40;;;;;;;17.20;15.70;;;;;;;;;;5042337;28;25065;-74
2023/09/06 12:40:13;;;;;;;15.95;14.70;;;;;;;;;;5036570;28;20504;-76
2023/09/06 12:42:48;;;;;;;28.88;21.27;;;;;;;;;;5052416;28;20429;-77
2023/09/06 12:45:18;;;;;;;33.77;22.60;;;;;;;;;;5041749;28;20425;-75
2023/09/06 12:47:45;;;;;;;46.83;25.88;;;;;;;;;;5028742;28;20465;-77
2023/09/06 12:50:15;;;;;;;36.33;23.23;;;;;;;;;;5031250;28;20964;-75
2023/09/06 12:52:46;;;;;;;33.00;22.70;;;;;;;;;;5040794;28;20462;-74
2023/09/06 12:55:13;;;;;;;23.85;19.55;;;;;;;;;;5038398;28;20430;-74
2023/09/06 12:57:40;;;;;;;29.27;21.10;;;;;;;;;;5036137;28;20509;-77
2023/09/06 13:00:11;;;;;;;56.73;27.73;;;;;;;;;;5042107;28;20555;-76
2023/09/06 13:02:38;;;;;;;53.55;27.23;;;;;;;;;;5061900;28;20434;-77
2023/09/06 13:05:08;;;;;;;63.47;28.70;;;;;;;;;;5068986;28;20508;-76
2023/09/06 13:07:35;;;;;;;61.73;29.17;;;;;;;;;;5030026;28;20430;-74
2023/09/06 13:10:03;;;;;;;84.63;32.25;;;;;;;;;;5032508;28;20441;-73
2023/09/06 13:12:30;;;;;;;91.18;34.00;;;;;;;;;;5026500;28;20464;-76
2023/09/06 13:14:58;;;;;;;92.45;33.67;;;;;;;;;;5027760;28;20782;-75
2023/09/06 13:17:25;;;;;;;89.75;33.13;;;;;;;;;;5032601;28;20960;-74
2023/09/06 13:19:55;;;;;;;104.22;35.83;;;;;;;;;;5028645;28;20427;-78
2023/09/06 13:22:25;;;;;;;111.97;38.05;;;;;;;;;;5029584;28;20982;-74
2023/09/06 13:24:52;;;;;;;84.70;33.92;;;;;;;;;;5028893;28;20774;-74
2023/09/06 13:27:20;;;;;;;83.50;32.20;;;;;;;;;;5029764;28;20437;-71
2023/09/06 13:29:48;;;;;;;107.40;36.97;;;;;;;;;;5043294;28;20812;-76
2023/09/06 13:32:16;;;;;;;108.82;37.05;;;;;;;;;;5049939;28;20509;-75
2023/09/06 13:34:44;;;;;;;110.43;37.33;;;;;;;;;;5060224;28;20438;-76
2023/09/06 13:37:11;;;;;;;123.75;40.42;;;;;;;;;;5032361;28;20431;-76
2023/09/06 13:39:38;;;;;;;122.25;40.30;;;;;;;;;;5025372;28;20440;-75
2023/09/06 13:42:05;;;;;;;116.03;37.95;;;;;;;;;;5030544;28;20433;-73
2023/09/06 13:44:35;;;;;;;93.10;33.97;;;;;;;;;;5041218;28;20431;-77
2023/09/06 13:47:02;;;;;;;96.53;35.13;;;;;;;;;;5030476;28;20952;-77
2023/09/06 13:49:29;;;;;;;99.55;35.38;;;;;;;;;;5044960;28;20430;-74
2023/09/06 13:51:59;;;;;;;100.15;35.63;;;;;;;;;;5038554;28;20433;-75
2023/09/06 13:54:33;;;;;;;80.38;28.10;;;;;;;;;;5033703;28;20489;-72
2023/09/06 13:57:00;;;;;;;78.82;29.00;;;;;;;;;;5033627;28;20457;-74
2023/09/06 13:59:28;;;;;;;166.50;158.35;;;;;;;;;;5028577;28;20442;-73
2023/09/06 14:01:55;;;;;;;251.20;239.10;;;;;;;;;;5023248;28;20434;-77
2023/09/06 14:04:22;;;;;;;255.68;243.30;;;;;;;;;;5027189;28;20437;-72
2023/09/06 14:06:51;;;;;;;254.15;241.82;;;;;;;;;;5039521;28;20901;-73
2023/09/06 14:09:19;;;;;;;280.70;267.13;;;;;;;;;;5035752;28;20440;-74
2023/09/06 14:11:46;;;;;;;128.75;122.30;;;;;;;;;;5025262;28;20454;-72
2023/09/06 14:14:13;;;;;;;153.55;146.00;;;;;;;;;;5025646;28;20451;-76
2023/09/06 14:16:40;;;;;;;491.90;224.23;;;;;;;;;;5027746;28;20434;-75
2023/09/06 14:19:07;;;;;;;1066.00;968.95;;;;;;;;;;5015968;28;20540;-75
2023/09/06 14:21:35;;;;;;;1.92;1.80;;;;;;;;;;5021142;28;20442;-75
2023/09/06 14:24:10;;;;;;;14.07;9.52;;;;;;;;;;5021034;28;20439;-74
2023/09/06 14:26:42;;;;;;;119.85;108.80;;;;;;;;;;5021640;28;20436;-75
2023/09/06 14:29:13;;;;;;;2.10;1.90;;;;;;;;;;5020395;28;20435;-74
2023/09/06 14:31:41;;;;;;;2.00;1.90;;;;;;;;;;5025975;28;20438;-74
2023/09/06 14:34:09;;;;;;;214.43;195.52;;;;;;;;;;5021241;28;20560;-73
2023/09/06 14:36:36;;;;;;;1109.43;999.90;;;;;;;;;;5020338;28;20997;-75
2023/09/06 14:39:04;;;;;;;3.67;3.47;;;;;;;;;;5033692;28;20437;-74
2023/09/06 14:41:35;;;;;;;657.72;592.33;;;;;;;;;;5020625;28;20430;-74
2023/09/06 14:44:03;;;;;;;1.98;1.88;;;;;;;;;;5030896;28;20805;-76